Time;durP1;ratioP1;P1;durP2;ratioP2;P2;SDS_P1;SDS_P2;PMS_P1;PMS_P2;Temp;Humidity;BMP_temperature;BMP_pressure;BME280_temperature;BME280_humidity;BME280_pressure;Samples;Min_cycle;Max_cycle;Signal;HPM_P1;HPM_P2
2022/01/25 00:15:28;;;;;;;15.23;10.10;;;;;;;0.43;59.19;102786.72;1654254;86;21169;-52
2022/01/25 00:33:28;;;;;;;16.15;11.33;;;;;;;0.36;59.38;102780.80;1579862;89;21150;-52
2022/01/25 00:35:55;;;;;;;16.07;9.95;;;;;;;0.36;59.58;102784.63;1566576;89;21078;-52
2022/01/25 00:38:21;;;;;;;14.43;10.28;;;;;;;0.39;59.60;102784.38;1584218;89;21084;-52
2022/01/25 00:40:47;;;;;;;13.68;9.73;;;;;;;0.41;59.47;102785.77;1583150;88;21053;-52
2022/01/25 00:43:14;;;;;;;14.28;10.55;;;;;;;0.39;59.25;102780.97;1599820;89;21103;-52
2022/01/25 00:45:41;;;;;;;11.90;9.53;;;;;;;0.38;59.31;102779.19;1608723;88;21080;-52
2022/01/25 00:48:17;;;;;;;13.30;9.60;;;;;;;0.37;59.10;102774.47;1590879;89;21449;-52
2022/01/25 00:50:40;;;;;;;13.32;10.23;;;;;;;0.36;59.25;102779.52;1593451;89;21093;-52
2022/01/25 00:55:33;;;;;;;13.43;9.98;;;;;;;0.41;59.37;102779.37;1603109;88;21542;-52
2022/01/25 00:58:02;;;;;;;14.18;9.60;;;;;;;0.45;59.22;102781.28;1599733;89;21173;-52
2022/01/25 01:00:29;;;;;;;14.87;10.40;;;;;;;0.45;58.93;102773.20;1587191;89;21550;-52
2022/01/25 01:02:56;;;;;;;13.38;9.85;;;;;;;0.47;58.86;102779.67;1602481;88;21546;-52
2022/01/25 01:05:22;;;;;;;13.53;9.90;;;;;;;0.46;58.84;102779.18;1576727;89;21529;-52
2022/01/25 01:07:49;;;;;;;13.53;10.13;;;;;;;0.47;58.85;102766.88;1593342;89;21620;-52
2022/01/25 01:10:19;;;;;;;14.43;10.08;;;;;;;0.45;58.77;102769.36;1620581;88;21581;-52
2022/01/25 01:15:41;;;;;;;15.53;10.10;;;;;;;0.44;58.80;102767.98;1595661;89;21046;-52
2022/01/25 01:29:14;;;;;;;14.68;10.10;;;;;;;0.34;58.51;102770.88;1584616;89;21166;-52
2022/01/25 01:31:53;;;;;;;14.47;10.55;;;;;;;0.32;58.45;102772.09;1626415;86;21042;-52
2022/01/25 01:34:28;;;;;;;15.28;10.30;;;;;;;0.33;58.32;102757.61;1629143;86;21083;-52
2022/01/25 01:44:51;;;;;;;;;;;;;;;0.26;58.08;102761.53;1600545;88;21128;-52
2022/01/25 01:47:08;;;;;;;16.60;10.15;;;;;;;0.26;58.21;102763.20;1600996;88;20130;-52
2022/01/25 01:49:41;;;;;;;14.55;9.63;;;;;;;0.25;58.10;102758.90;1606665;88;21125;-51
2022/01/25 01:52:05;;;;;;;16.67;9.78;;;;;;;0.26;58.11;102754.24;1618712;87;21054;-52
2022/01/25 01:54:31;;;;;;;15.15;9.78;;;;;;;0.29;58.13;102750.58;1581106;88;21521;-51
2022/01/25 01:56:59;;;;;;;14.10;9.78;;;;;;;0.29;58.07;102760.81;1592664;88;21065;-52
2022/01/25 01:59:27;;;;;;;15.55;10.38;;;;;;;0.28;58.17;102755.20;1608372;88;21121;-52
2022/01/25 02:01:55;;;;;;;13.48;9.45;;;;;;;0.28;58.08;102761.59;1602538;87;21490;-52
2022/01/25 02:04:21;;;;;;;13.45;9.23;;;;;;;0.29;58.24;102755.27;1637567;87;21065;-52
2022/01/25 02:06:48;;;;;;;13.75;9.78;;;;;;;0.33;58.21;102746.94;1635423;87;21031;-52
2022/01/25 02:09:14;;;;;;;13.28;9.65;;;;;;;0.37;58.11;102752.70;1629408;87;21010;-52
2022/01/25 02:11:41;;;;;;;13.68;10.15;;;;;;;0.36;57.90;102753.52;1627495;87;21049;-52
2022/01/25 02:14:12;;;;;;;11.40;8.65;;;;;;;0.34;57.94;102738.87;1636780;87;21073;-52
2022/01/25 02:16:57;;;;;;;11.95;8.73;;;;;;;0.35;57.93;102735.52;1631598;87;21115;-52
2022/01/25 02:24:39;;;;;;;15.18;10.15;;;;;;;0.37;57.38;102737.76;1749532;80;21501;-52
2022/01/25 02:27:06;;;;;;;13.58;10.05;;;;;;;0.36;57.61;102741.10;1770811;80;21554;-54
2022/01/25 02:29:32;;;;;;;13.15;9.15;;;;;;;0.37;57.63;102730.08;1759710;80;21006;-52
2022/01/25 02:31:59;;;;;;;14.30;9.58;;;;;;;0.39;57.41;102738.29;1756446;80;21072;-52
2022/01/25 02:34:25;;;;;;;12.15;9.50;;;;;;;0.41;57.51;102730.71;1762844;80;21062;-52
2022/01/25 02:37:00;;;;;;;13.00;9.43;;;;;;;0.44;57.37;102733.41;1755046;80;21069;-52
2022/01/25 02:39:27;;;;;;;12.60;8.73;;;;;;;0.40;57.20;102728.54;1749188;81;20984;-52
2022/01/25 02:41:54;;;;;;;12.18;8.73;;;;;;;0.39;57.40;102734.87;1767417;80;21549;-51
2022/01/25 02:44:26;;;;;;;12.28;8.33;;;;;;;0.37;57.44;102734.77;1755588;80;22233;-51
2022/01/25 02:49:31;;;;;;;12.33;8.53;;;;;;;0.36;57.54;102727.02;1695714;82;21081;-52
2022/01/25 02:52:00;;;;;;;14.25;9.53;;;;;;;0.40;57.41;102728.54;1609814;87;21164;-52
2022/01/25 02:54:27;;;;;;;10.48;8.33;;;;;;;0.42;57.34;102732.45;1594680;87;21122;-52
2022/01/25 02:56:53;;;;;;;9.80;7.85;;;;;;;0.46;57.11;102732.69;1616837;87;21094;-52
2022/01/25 02:59:20;;;;;;;9.90;7.60;;;;;;;0.46;57.11;102724.12;1604701;87;21030;-52
2022/01/25 03:01:47;;;;;;;11.35;7.97;;;;;;;0.43;56.96;102725.27;1613190;87;21514;-52
2022/01/25 03:04:16;;;;;;;11.48;9.03;;;;;;;0.38;56.93;102726.30;1613560;88;21078;-52
2022/01/25 03:06:43;;;;;;;12.88;8.75;;;;;;;0.32;56.81;102731.51;1619377;86;21068;-52
2022/01/25 03:09:10;;;;;;;10.65;8.55;;;;;;;0.25;56.72;102735.86;1624860;87;21118;-52
2022/01/25 03:11:36;;;;;;;11.57;8.53;;;;;;;0.20;57.00;102723.20;1637348;87;21136;-51
2022/01/25 03:14:08;;;;;;;11.03;8.55;;;;;;;0.20;57.10;102725.77;1627184;87;21061;-51
2022/01/25 03:16:44;;;;;;;11.70;8.00;;;;;;;0.18;57.35;102728.65;1622814;87;21613;-52
2022/01/25 03:19:42;;;;;;;12.73;8.33;;;;;;;0.17;57.49;102729.44;1615805;87;21066;-51
2022/01/25 03:21:59;;;;;;;10.20;7.85;;;;;;;0.16;57.53;102740.49;1626217;86;21072;-51
2022/01/25 03:24:25;;;;;;;9.95;7.62;;;;;;;0.15;57.40;102741.28;1631049;86;21578;-53
2022/01/25 03:26:52;;;;;;;10.08;7.97;;;;;;;0.13;57.45;102735.20;1595461;88;21626;-52
2022/01/25 03:29:19;;;;;;;10.90;8.60;;;;;;;0.14;57.51;102729.30;1627403;87;21561;-51
2022/01/25 03:31:46;;;;;;;11.43;8.83;;;;;;;0.15;57.51;102720.80;1597299;88;21081;-51
2022/01/25 03:34:12;;;;;;;11.70;8.55;;;;;;;0.18;57.50;102734.66;1627081;87;21136;-52
2022/01/25 03:36:39;;;;;;;10.80;8.33;;;;;;;0.20;57.55;102733.05;1590246;88;21137;-53
2022/01/25 03:39:05;;;;;;;12.63;8.40;;;;;;;0.20;57.52;102732.17;1614122;87;21026;-51
2022/01/25 03:41:32;;;;;;;13.08;9.00;;;;;;;0.18;57.41;102722.25;1599447;88;21557;-51
2022/01/25 03:44:00;;;;;;;11.70;8.18;;;;;;;0.17;57.56;102720.08;1606996;88;21071;-52
2022/01/25 03:51:48;;;;;;;12.10;8.40;;;;;;;0.12;57.52;102724.50;1692229;84;21098;-53
2022/01/25 03:54:15;;;;;;;10.95;8.10;;;;;;;0.10;57.53;102725.70;1722842;81;21011;-54
2022/01/25 03:56:41;;;;;;;9.90;7.75;;;;;;;0.09;57.46;102733.28;1768339;80;21049;-53
2022/01/25 03:59:08;;;;;;;12.05;8.88;;;;;;;0.08;57.44;102728.98;1756885;80;21022;-53
2022/01/25 04:01:35;;;;;;;11.57;8.83;;;;;;;0.06;57.15;102715.23;1755576;80;21498;-53
2022/01/25 04:04:08;;;;;;;12.18;9.08;;;;;;;0.02;57.41;102720.59;1759461;81;21085;-53
2022/01/25 04:06:34;;;;;;;10.58;8.03;;;;;;;0.03;57.54;102716.33;1768448;80;21024;-53
2022/01/25 04:09:03;;;;;;;13.45;8.78;;;;;;;0.02;57.38;102723.55;1763819;80;21026;-52
2022/01/25 04:11:29;;;;;;;11.88;9.10;;;;;;;0.02;57.48;102718.43;1762418;80;20983;-51
2022/01/25 04:13:57;;;;;;;11.78;8.75;;;;;;;-0.02;57.43;102715.69;1776142;80;20962;-51
2022/01/25 04:16:32;;;;;;;11.57;8.73;;;;;;;-0.04;57.52;102720.25;1755671;80;21558;-53
2022/01/25 04:19:07;;;;;;;12.20;7.90;;;;;;;-0.05;57.62;102727.07;1765027;80;21035;-53
2022/01/25 04:26:50;;;;;;;11.30;8.00;;;;;;;-0.07;57.59;102717.16;1758221;81;21026;-53
2022/01/25 04:29:17;;;;;;;10.45;7.70;;;;;;;-0.06;57.68;102716.34;1738334;81;21614;-53
2022/01/25 04:31:44;;;;;;;10.93;7.50;;;;;;;-0.04;57.64;102727.53;1753744;81;21062;-53
2022/01/25 04:34:24;;;;;;;11.60;8.48;;;;;;;-0.03;57.88;102736.09;1751405;80;21042;-53
2022/01/25 04:37:02;;;;;;;11.63;8.10;;;;;;;0.00;57.90;102731.16;1767306;80;20982;-53
2022/01/25 04:50:12;;;;;;;10.35;7.03;;;;;;;-0.02;57.57;102729.77;1748088;81;20994;-52
2022/01/25 04:52:50;;;;;;;12.73;7.78;;;;;;;-0.06;57.55;102741.92;1767213;80;21081;-52
2022/01/25 04:55:17;;;;;;;9.55;7.12;;;;;;;-0.09;57.57;102739.22;1756696;80;20987;-52
2022/01/25 04:57:52;;;;;;;10.08;7.50;;;;;;;-0.12;57.67;102735.20;1768702;80;21053;-53
2022/01/25 05:05:27;;;;;;;11.73;7.83;;;;;;;-0.15;58.12;102740.19;1605211;87;21125;-53
2022/01/25 05:10:33;;;;;;;10.58;7.78;;;;;;;-0.10;58.26;102734.89;1601487;89;21102;-53
2022/01/25 05:18:25;;;;;;;9.53;7.00;;;;;;;-0.03;58.14;102727.14;1556625;91;21094;-53
2022/01/25 05:23:32;;;;;;;8.90;6.42;;;;;;;-0.01;57.88;102727.70;1552174;91;21602;-53
2022/01/25 05:25:59;;;;;;;7.42;6.60;;;;;;;0.02;57.84;102728.66;1552002;91;21097;-54
2022/01/25 05:28:25;;;;;;;9.13;6.90;;;;;;;0.00;57.60;102737.12;1552549;91;21122;-53
2022/01/25 05:30:51;;;;;;;9.00;6.65;;;;;;;0.02;57.49;102731.23;1551712;91;21063;-53
2022/01/25 05:33:18;;;;;;;10.10;6.55;;;;;;;0.02;57.56;102735.06;1554770;91;21053;-52
2022/01/25 05:35:45;;;;;;;7.60;5.62;;;;;;;0.03;57.39;102732.97;1555729;91;21149;-53
2022/01/25 05:38:11;;;;;;;9.18;6.10;;;;;;;0.02;57.46;102724.83;1554508;91;21090;-53
2022/01/25 05:40:47;;;;;;;8.80;5.83;;;;;;;0.02;57.23;102735.06;1552648;91;21142;-53
2022/01/25 05:48:31;;;;;;;7.17;5.40;;;;;;;-0.06;56.93;102744.48;1567278;90;21576;-53
2022/01/25 05:50:58;;;;;;;10.30;7.05;;;;;;;-0.08;56.89;102749.92;1584616;90;21090;-53
2022/01/25 05:53:24;;;;;;;7.75;6.17;;;;;;;-0.08;57.00;102738.80;1540540;92;21083;-53
2022/01/25 05:55:51;;;;;;;7.33;5.20;;;;;;;-0.08;56.93;102735.85;1567110;90;21162;-54
2022/01/25 05:58:17;;;;;;;6.92;5.47;;;;;;;-0.06;56.89;102745.77;1542656;92;21139;-53
2022/01/25 06:00:44;;;;;;;7.10;5.87;;;;;;;-0.09;56.72;102740.89;1651294;86;21132;-53
2022/01/25 06:03:10;;;;;;;9.30;5.90;;;;;;;-0.11;56.65;102736.98;1651830;86;21559;-54
2022/01/25 06:05:37;;;;;;;8.40;5.72;;;;;;;-0.12;56.64;102743.28;1659088;86;21600;-53
2022/01/25 06:08:04;;;;;;;7.55;6.08;;;;;;;-0.13;56.44;102744.98;1659493;85;21103;-53
2022/01/25 06:10:32;;;;;;;7.58;5.12;;;;;;;-0.14;56.63;102739.37;1710939;80;21545;-54
2022/01/25 06:12:59;;;;;;;8.00;5.80;;;;;;;-0.15;56.75;102745.30;1757235;80;21537;-53
2022/01/25 06:15:27;;;;;;;7.00;5.28;;;;;;;-0.16;56.54;102745.20;1773088;80;21011;-51
2022/01/25 06:17:53;;;;;;;6.62;5.45;;;;;;;-0.21;56.48;102742.42;1769000;80;21557;-54
2022/01/25 06:21:37;;;;;;;6.37;5.30;;;;;;;-0.27;56.59;102735.66;1807577;78;27103;-52
2022/01/25 06:24:05;;;;;;;8.08;5.80;;;;;;;-0.25;56.35;102731.52;1751785;81;21013;-52
2022/01/25 06:26:32;;;;;;;7.30;5.40;;;;;;;-0.29;56.28;102740.25;1763217;80;21041;-52
2022/01/25 06:29:00;;;;;;;8.75;6.12;;;;;;;-0.32;56.44;102733.28;1750413;80;21100;-52
2022/01/25 06:31:30;;;;;;;8.18;5.75;;;;;;;-0.32;56.30;102740.95;1750181;80;21552;-52
2022/01/25 06:33:56;;;;;;;8.53;5.72;;;;;;;-0.37;56.33;102732.14;1736688;80;21018;-53
2022/01/25 06:36:23;;;;;;;5.83;4.92;;;;;;;-0.44;56.26;102735.19;1752102;80;21017;-53
2022/01/25 06:38:50;;;;;;;7.72;5.42;;;;;;;-0.50;56.43;102727.19;1761997;80;21042;-52
2022/01/25 06:41:17;;;;;;;9.58;8.58;;;;;;;-0.56;56.47;102728.13;1754796;80;21126;-52
2022/01/25 06:43:44;;;;;;;10.08;6.83;;;;;;;-0.59;56.54;102725.79;1764366;80;21037;-53
2022/01/25 06:46:10;;;;;;;8.18;6.70;;;;;;;-0.60;56.74;102723.66;1762881;80;21061;-53
2022/01/25 06:48:37;;;;;;;9.28;5.70;;;;;;;-0.57;56.74;102717.80;1772838;80;21066;-52
2022/01/25 06:51:04;;;;;;;6.58;5.58;;;;;;;-0.56;56.56;102724.30;1754881;80;21516;-52
2022/01/25 06:53:30;;;;;;;10.13;5.87;;;;;;;-0.58;56.56;102725.89;1748275;80;21496;-52
2022/01/25 06:55:56;;;;;;;6.35;5.25;;;;;;;-0.59;56.62;102716.45;1766776;80;21501;-52
2022/01/25 06:58:23;;;;;;;7.45;5.62;;;;;;;-0.57;56.63;102719.97;1759014;80;21560;-52
2022/01/25 07:00:49;;;;;;;7.80;5.67;;;;;;;-0.56;56.49;102725.58;1762836;80;21441;-52
2022/01/25 07:03:16;;;;;;;8.40;6.03;;;;;;;-0.56;56.46;102720.47;1757852;80;21542;-52
2022/01/25 07:05:42;;;;;;;10.05;6.30;;;;;;;-0.55;56.36;102720.93;1748380;80;21559;-52
2022/01/25 07:08:10;;;;;;;7.17;6.00;;;;;;;-0.55;56.32;102717.09;1725550;82;21586;-52
2022/01/25 07:10:37;;;;;;;7.87;6.00;;;;;;;-0.58;56.43;102711.83;1750285;80;21525;-53
2022/01/25 07:13:03;;;;;;;9.33;6.28;;;;;;;-0.60;56.23;102712.15;1746363;80;21501;-52
2022/01/25 07:15:31;;;;;;;9.58;6.80;;;;;;;-0.62;56.28;102712.47;1746375;80;21062;-52
2022/01/25 07:17:58;;;;;;;8.83;6.28;;;;;;;-0.61;56.38;102701.42;1732469;80;21031;-52
2022/01/25 07:20:24;;;;;;;9.73;6.87;;;;;;;-0.61;56.54;102706.54;1745146;80;21085;-53
2022/01/25 07:22:52;;;;;;;8.65;6.40;;;;;;;-0.58;56.45;102700.72;1749137;80;21026;-53
2022/01/25 07:25:18;;;;;;;9.28;6.72;;;;;;;-0.55;56.57;102701.75;1750915;80;21042;-52
2022/01/25 07:27:45;;;;;;;7.83;5.87;;;;;;;-0.51;56.24;102695.12;1756764;80;21054;-52
2022/01/25 07:30:12;;;;;;;8.23;5.90;;;;;;;-0.49;56.20;102702.08;1761450;80;21062;-52
2022/01/25 07:32:38;;;;;;;8.68;5.87;;;;;;;-0.46;56.11;102699.70;1761304;80;21043;-52
2022/01/25 07:35:06;;;;;;;9.00;6.35;;;;;;;-0.42;55.99;102699.06;1752921;80;20997;-52
2022/01/25 07:37:32;;;;;;;8.48;5.28;;;;;;;-0.43;55.74;102703.69;1746464;80;21033;-52
2022/01/25 07:39:58;;;;;;;8.35;5.62;;;;;;;-0.44;55.83;102705.77;1762913;80;21067;-53
2022/01/25 07:42:27;;;;;;;6.70;5.05;;;;;;;-0.45;55.94;102700.16;1689541;83;21501;-52
2022/01/25 07:44:55;;;;;;;9.33;6.22;;;;;;;-0.42;55.94;102704.18;1718665;81;21041;-52
2022/01/25 07:47:22;;;;;;;8.28;5.95;;;;;;;-0.39;55.67;102706.88;1695277;83;20987;-52
2022/01/25 07:49:48;;;;;;;11.20;6.92;;;;;;;-0.39;55.74;102704.33;1684306;84;20983;-54
2022/01/25 07:52:15;;;;;;;8.63;6.00;;;;;;;-0.40;55.79;102707.70;1684342;83;21042;-53
2022/01/25 07:54:42;;;;;;;7.62;6.22;;;;;;;-0.40;55.85;102717.93;1690232;83;21058;-52
2022/01/25 07:57:08;;;;;;;9.90;6.72;;;;;;;-0.45;55.86;102716.78;1686918;83;21046;-53
2022/01/25 07:59:35;;;;;;;9.38;5.78;;;;;;;-0.46;56.00;102720.16;1692653;83;21139;-52
2022/01/25 08:02:02;;;;;;;9.40;6.78;;;;;;;-0.49;55.78;102709.75;1694363;83;21058;-51
2022/01/25 08:04:29;;;;;;;7.80;6.03;;;;;;;-0.58;55.97;102715.67;1696086;82;21546;-52
2022/01/25 08:06:55;;;;;;;11.30;6.78;;;;;;;-0.62;56.31;102721.80;1690114;83;21482;-52
2022/01/25 08:09:21;;;;;;;7.40;5.90;;;;;;;-0.59;56.06;102717.72;1697454;83;21101;-52
2022/01/25 08:11:48;;;;;;;10.75;7.17;;;;;;;-0.58;55.92;102716.95;1703127;83;21026;-52
2022/01/25 08:14:17;;;;;;;8.75;6.72;;;;;;;-0.59;55.88;102722.84;1736614;80;21069;-52
2022/01/25 08:16:46;;;;;;;9.05;6.72;;;;;;;-0.62;55.90;102715.02;1749992;79;21096;-52
2022/01/25 08:19:13;;;;;;;6.83;5.75;;;;;;;-0.57;55.98;102718.69;1744767;80;21038;-52
2022/01/25 08:21:42;;;;;;;10.75;6.67;;;;;;;-0.50;55.64;102723.35;1729886;80;21054;-53
2022/01/25 08:24:10;;;;;;;10.25;6.35;;;;;;;-0.52;55.54;102717.27;1752691;80;21018;-52
2022/01/25 08:26:37;;;;;;;8.48;6.05;;;;;;;-0.48;55.73;102720.48;1756577;80;21431;-52
2022/01/25 08:29:04;;;;;;;9.53;6.47;;;;;;;-0.39;55.56;102723.50;1752264;80;21530;-52
2022/01/25 08:31:31;;;;;;;9.53;6.67;;;;;;;-0.32;55.34;102723.05;1751764;80;21164;-52
2022/01/25 08:33:58;;;;;;;8.90;6.30;;;;;;;-0.32;55.30;102728.16;1742753;81;21018;-52
2022/01/25 08:36:25;;;;;;;9.25;6.67;;;;;;;-0.31;55.43;102723.52;1744643;80;21603;-53
2022/01/25 08:38:51;;;;;;;10.13;6.62;;;;;;;-0.25;55.35;102730.66;1754024;80;21025;-52
2022/01/25 08:41:18;;;;;;;8.73;6.70;;;;;;;-0.22;55.17;102726.97;1755836;80;21662;-52
2022/01/25 08:43:44;;;;;;;10.38;6.92;;;;;;;-0.21;54.96;102727.07;1749578;80;21497;-52
2022/01/25 08:46:11;;;;;;;9.95;6.53;;;;;;;-0.23;54.88;102722.23;1730090;81;21496;-52
2022/01/25 08:48:37;;;;;;;7.70;6.35;;;;;;;-0.24;54.95;102719.61;1747143;81;21038;-53
2022/01/25 08:51:05;;;;;;;7.25;5.85;;;;;;;-0.18;55.19;102713.14;1749697;80;21029;-52
2022/01/25 08:53:33;;;;;;;8.78;6.35;;;;;;;-0.04;55.18;102722.41;1752331;80;21026;-52
2022/01/25 08:56:00;;;;;;;11.63;7.33;;;;;;;0.04;54.71;102710.42;1751594;80;21014;-52
2022/01/25 08:58:26;;;;;;;12.70;7.62;;;;;;;0.06;54.71;102708.83;1754449;80;21017;-51
2022/01/25 09:00:53;;;;;;;7.72;5.87;;;;;;;0.08;54.47;102703.38;1755867;80;21112;-51
2022/01/25 09:03:20;;;;;;;7.05;5.83;;;;;;;0.10;54.50;102703.06;1750477;80;21541;-51
2022/01/25 09:05:46;;;;;;;8.95;5.97;;;;;;;0.11;54.28;102705.69;1753431;80;21054;-52
2022/01/25 09:10:44;;;;;;;8.58;6.67;;;;;;;0.15;54.30;102706.72;1730668;81;21587;-52
2022/01/25 09:13:10;;;;;;;9.58;6.35;;;;;;;0.06;54.05;102699.87;1728589;81;21032;-53
2022/01/25 09:15:38;;;;;;;7.40;5.83;;;;;;;0.06;54.34;102701.15;1723642;81;21122;-52
2022/01/25 09:18:04;;;;;;;8.05;6.60;;;;;;;0.09;54.44;102697.45;1719612;81;21041;-51
2022/01/25 09:20:31;;;;;;;7.47;6.20;;;;;;;0.12;54.08;102697.63;1726880;81;21081;-51
2022/01/25 09:22:58;;;;;;;9.75;7.20;;;;;;;0.05;53.98;102692.98;1707210;81;21158;-51
2022/01/25 09:25:24;;;;;;;7.62;5.90;;;;;;;0.02;54.10;102689.00;1713810;82;21054;-51
2022/01/25 09:27:51;;;;;;;9.48;6.25;;;;;;;0.00;54.20;102689.78;1709560;82;21370;-52
2022/01/25 09:30:17;;;;;;;9.68;6.80;;;;;;;0.01;54.37;102690.67;1733888;81;21136;-51
2022/01/25 09:32:45;;;;;;;8.23;5.78;;;;;;;0.05;54.55;102691.30;1725695;81;21050;-52
2022/01/25 09:35:13;;;;;;;9.78;6.78;;;;;;;0.12;54.15;102695.06;1715897;81;21030;-52
2022/01/25 09:37:40;;;;;;;9.10;6.90;;;;;;;0.11;53.78;102680.48;1721982;81;21439;-52
2022/01/25 09:40:09;;;;;;;9.38;5.87;;;;;;;0.04;53.82;102680.61;1711464;82;21505;-52
2022/01/25 09:42:38;;;;;;;9.58;6.25;;;;;;;0.03;53.88;102671.55;1720076;82;21041;-51
2022/01/25 09:45:06;;;;;;;9.50;6.92;;;;;;;0.05;53.93;102673.78;1722656;81;21121;-51
2022/01/25 09:47:33;;;;;;;8.78;5.92;;;;;;;0.08;53.80;102673.95;1738337;80;21504;-51
2022/01/25 09:50:00;;;;;;;10.50;7.00;;;;;;;0.08;53.68;102668.84;1740256;80;21584;-52
2022/01/25 09:52:27;;;;;;;7.37;6.20;;;;;;;0.13;53.58;102666.09;1740285;80;21496;-51
2022/01/25 09:54:56;;;;;;;10.35;6.85;;;;;;;0.15;53.46;102660.25;1707038;83;21060;-52
2022/01/25 09:57:23;;;;;;;9.78;7.12;;;;;;;0.18;53.20;102653.14;1742571;80;21078;-51
2022/01/25 09:59:50;;;;;;;8.30;6.50;;;;;;;0.20;53.36;102655.38;1752534;80;21025;-51
2022/01/25 10:02:55;;;;;;;8.58;6.53;;;;;;;0.22;52.92;102656.33;1754335;80;21023;-51
2022/01/25 10:05:30;;;;;;;8.90;7.67;;;;;;;0.19;52.92;102653.59;1696872;82;21064;-51
2022/01/25 10:07:59;;;;;;;10.95;7.28;;;;;;;0.15;52.93;102665.77;1693946;82;21072;-51
2022/01/25 10:10:27;;;;;;;9.58;7.03;;;;;;;0.19;53.04;102652.31;1675210;83;21024;-51
2022/01/25 10:13:19;;;;;;;10.90;6.80;;;;;;;0.25;52.90;102650.09;1676811;84;21047;-51
2022/01/25 10:15:46;;;;;;;16.12;8.48;;;;;;;0.29;52.89;102646.45;1627905;87;21202;-51
2022/01/25 10:18:14;;;;;;;12.60;8.05;;;;;;;0.31;52.43;102647.84;1640690;85;21062;-51
2022/01/25 10:20:45;;;;;;;11.10;7.72;;;;;;;0.34;52.42;102647.97;1599553;87;21171;-51
2022/01/25 10:23:18;;;;;;;10.25;7.22;;;;;;;0.34;52.42;102641.17;1620410;87;21131;-51
2022/01/25 10:25:46;;;;;;;9.20;6.70;;;;;;;0.34;52.51;102632.22;1576869;89;21084;-51
2022/01/25 10:28:14;;;;;;;10.13;7.00;;;;;;;0.36;52.19;102634.84;1565223;90;21189;-51
2022/01/25 10:30:51;;;;;;;9.85;7.10;;;;;;;0.37;52.40;102632.77;1567459;89;21139;-50
2022/01/25 10:33:26;;;;;;;9.30;6.62;;;;;;;0.35;52.13;102633.10;1520660;93;21114;-51
2022/01/25 10:35:53;;;;;;;10.90;7.78;;;;;;;0.32;52.54;102631.66;1532737;93;21217;-50
2022/01/25 10:38:26;;;;;;;10.23;7.35;;;;;;;0.33;52.00;102624.04;1533057;91;21111;-52
2022/01/25 10:41:00;;;;;;;10.72;6.97;;;;;;;0.29;52.12;102628.53;1530669;93;21062;-51
2022/01/25 10:43:27;;;;;;;8.75;7.08;;;;;;;0.24;52.07;102618.88;1485325;95;21095;-50
2022/01/25 10:46:23;;;;;;;10.95;7.10;;;;;;;0.18;52.13;102622.42;1494223;95;21095;-51
2022/01/25 10:49:01;;;;;;;7.95;5.90;;;;;;;0.10;52.29;102612.20;1491472;95;21147;-51
2022/01/25 10:51:48;;;;;;;10.90;7.33;;;;;;;0.15;52.52;102617.13;1486852;95;21113;-51
2022/01/25 10:54:23;;;;;;;9.78;6.58;;;;;;;0.21;52.46;102608.47;1499933;93;21150;-51
2022/01/25 10:56:57;;;;;;;9.43;7.05;;;;;;;0.27;52.51;102604.53;1504579;93;21085;-52
2022/01/25 10:59:32;;;;;;;10.72;7.22;;;;;;;0.25;52.23;102601.02;1495783;93;21145;-51
2022/01/25 11:02:05;;;;;;;8.13;7.03;;;;;;;0.19;52.31;102595.60;1482835;95;21577;-51
2022/01/25 11:04:38;;;;;;;10.40;7.55;;;;;;;0.17;51.75;102596.33;1444215;98;21601;-51
2022/01/25 11:07:10;;;;;;;9.05;7.20;;;;;;;0.12;51.95;102597.80;1439948;98;21195;-51
2022/01/25 11:09:44;;;;;;;10.25;7.25;;;;;;;0.13;52.54;102599.54;1422031;99;21596;-51
2022/01/25 11:12:15;;;;;;;9.43;7.00;;;;;;;0.19;52.57;102599.84;1454887;95;21173;-51
2022/01/25 11:14:50;;;;;;;9.53;6.90;;;;;;;0.25;52.37;102592.49;1476417;95;21080;-50
2022/01/25 11:17:19;;;;;;;8.98;7.00;;;;;;;0.31;52.43;102587.66;1474628;95;21202;-50
2022/01/25 11:19:45;;;;;;;11.00;7.17;;;;;;;0.39;52.56;102586.35;1480084;95;21277;-51
2022/01/25 11:22:17;;;;;;;8.85;6.35;;;;;;;0.48;51.62;102574.85;1478174;95;21215;-51
2022/01/25 11:24:42;;;;;;;9.45;6.87;;;;;;;0.47;51.30;102579.91;1500991;94;21130;-50
2022/01/25 11:27:08;;;;;;;10.90;7.00;;;;;;;0.42;50.99;102573.67;1486705;94;21068;-51
2022/01/25 11:29:36;;;;;;;10.13;7.40;;;;;;;0.33;50.92;102569.41;1515363;89;21060;-51
2022/01/25 11:32:13;;;;;;;9.98;7.03;;;;;;;0.22;51.25;102559.94;1565511;90;21590;-50
2022/01/25 11:34:40;;;;;;;9.33;7.15;;;;;;;0.21;51.54;102557.27;1523286;92;21077;-50
2022/01/25 11:37:08;;;;;;;10.60;7.60;;;;;;;0.25;51.74;102556.22;1528278;93;21147;-51
2022/01/25 11:39:38;;;;;;;10.35;7.22;;;;;;;0.31;51.88;102554.38;1543224;89;21093;-50
2022/01/25 11:42:07;;;;;;;10.72;7.72;;;;;;;0.34;51.52;102550.28;1602469;88;21079;-51
2022/01/25 11:44:34;;;;;;;8.18;6.35;;;;;;;0.38;51.33;102548.73;1595827;89;21064;-50
2022/01/25 11:47:12;;;;;;;8.75;6.62;;;;;;;0.34;51.46;102554.52;1552588;90;21172;-51
2022/01/25 11:49:56;;;;;;;10.23;6.87;;;;;;;0.37;51.55;102562.36;1551340;92;21106;-50
2022/01/25 11:52:26;;;;;;;11.12;6.83;;;;;;;0.42;51.60;102560.88;1540812;91;21625;-51
2022/01/25 11:54:57;;;;;;;10.10;7.10;;;;;;;0.47;51.44;102556.86;1552893;91;21218;-51
2022/01/25 11:57:25;;;;;;;9.10;7.12;;;;;;;0.52;51.29;102563.06;1473629;96;21053;-51
2022/01/25 11:59:56;;;;;;;10.50;7.40;;;;;;;0.52;51.31;102566.51;1472936;96;21206;-52
2022/01/25 12:02:45;;;;;;;9.88;7.58;;;;;;;0.57;51.43;102576.98;1466694;96;21156;-52
2022/01/25 12:05:15;;;;;;;11.65;7.10;;;;;;;0.63;51.57;102571.75;1456896;96;21223;-51
2022/01/25 12:07:59;;;;;;;10.98;7.10;;;;;;;0.73;51.30;102575.61;1467545;95;21192;-51
2022/01/25 12:10:42;;;;;;;9.58;7.47;;;;;;;0.79;51.30;102571.66;1445285;98;21231;-51
2022/01/25 12:13:17;;;;;;;10.00;6.80;;;;;;;0.87;51.13;102563.02;1436648;98;21216;-50
2022/01/25 12:15:45;;;;;;;9.58;6.97;;;;;;;0.88;51.07;102563.91;1408806;99;21719;-52
2022/01/25 12:18:50;;;;;;;8.95;6.92;;;;;;;0.87;50.81;102568.58;1428538;99;21082;-50
2022/01/25 12:21:19;;;;;;;9.25;7.10;;;;;;;0.87;50.80;102568.58;1420552;100;21629;-51
2022/01/25 12:23:46;;;;;;;12.28;7.60;;;;;;;0.90;50.87;102563.58;1416913;100;21140;-51
2022/01/25 12:26:18;;;;;;;8.55;6.60;;;;;;;0.95;50.56;102560.84;1404670;99;21171;-51
2022/01/25 12:28:46;;;;;;;11.73;7.62;;;;;;;0.91;50.48;102558.52;1394286;100;21218;-51
2022/01/25 12:31:16;;;;;;;10.50;7.33;;;;;;;0.84;50.41;102560.34;1425993;97;21629;-51
2022/01/25 12:33:45;;;;;;;10.90;8.45;;;;;;;0.76;50.64;102554.84;1466962;96;21638;-51
2022/01/25 12:36:11;;;;;;;10.93;7.83;;;;;;;0.73;50.75;102559.84;1490328;96;21076;-51
2022/01/25 12:38:51;;;;;;;12.20;8.30;;;;;;;0.73;50.81;102560.23;1488874;95;21195;-51
2022/01/25 12:41:30;;;;;;;13.15;7.78;;;;;;;0.72;50.80;102554.66;1490386;95;21132;-51
2022/01/25 12:43:56;;;;;;;12.23;7.08;;;;;;;0.75;50.67;102563.35;1460310;97;21167;-51
2022/01/25 12:46:29;;;;;;;10.55;7.08;;;;;;;0.83;50.28;102564.98;1492363;94;21647;-51
2022/01/25 12:49:02;;;;;;;12.37;8.43;;;;;;;0.84;50.09;102556.50;1588345;89;21145;-52
2022/01/25 12:51:36;;;;;;;16.00;8.08;;;;;;;0.84;50.13;102552.66;1516299;93;21204;-52
2022/01/25 12:54:07;;;;;;;9.68;7.33;;;;;;;0.80;50.17;102559.30;1480209;95;21100;-51
2022/01/25 12:56:38;;;;;;;10.95;7.72;;;;;;;0.75;50.13;102558.63;1471953;95;21102;-53
2022/01/25 12:59:09;;;;;;;11.53;7.77;;;;;;;0.74;50.11;102553.89;1537781;91;21138;-51
2022/01/25 13:01:38;;;;;;;8.78;6.50;;;;;;;0.76;50.22;102551.42;1506925;92;21446;-53
2022/01/25 13:04:06;;;;;;;10.95;7.15;;;;;;;0.71;50.18;102555.05;1506323;94;21625;-53
2022/01/25 13:06:39;;;;;;;12.68;8.23;;;;;;;0.66;50.29;102560.34;1488078;95;21644;-53
2022/01/25 13:09:15;;;;;;;9.25;7.12;;;;;;;0.62;50.09;102560.12;1490382;94;21142;-50
2022/01/25 13:17:11;;;;;;;12.68;7.90;;;;;;;0.68;50.01;102557.88;1466917;97;21198;-52
2022/01/25 13:19:42;;;;;;;10.38;7.78;;;;;;;0.71;50.09;102556.72;1470481;97;21157;-51
2022/01/25 13:22:18;;;;;;;10.90;7.45;;;;;;;0.73;49.66;102557.67;1442210;98;21183;-51
2022/01/25 13:27:17;;;;;;;11.90;7.40;;;;;;;0.69;49.69;102546.81;1410797;100;21240;-51
2022/01/25 13:32:45;;;;;;;12.30;8.53;;;;;;;0.63;49.83;102541.41;1388214;102;21141;-53
2022/01/25 13:35:26;;;;;;;11.55;7.90;;;;;;;0.63;49.92;102538.84;1402212;100;21182;-51